sensor_id;sensor_type;location;lat;lon;timestamp;P1;durP1;ratioP1;P2;durP2;ratioP2
64459;SDS011;50828;53.756;21.140;2023-08-08T00:04:56;10.00;;;2.50;;
64459;SDS011;50828;53.756;21.140;2023-08-08T00:10:05;12.30;;;3.30;;
64459;SDS011;50828;53.756;21.140;2023-08-08T00:15:13;9.50;;;2.60;;
64459;SDS011;50828;53.756;21.140;2023-08-08T00:20:22;9.90;;;2.70;;
64459;SDS011;50828;53.756;21.140;2023-08-08T00:25:30;7.70;;;2.50;;
64459;SDS011;50828;53.756;21.140;2023-08-08T00:30:38;8.90;;;2.70;;
64459;SDS011;50828;53.756;21.140;2023-08-08T00:35:48;10.60;;;2.70;;
64459;SDS011;50828;53.756;21.140;2023-08-08T00:40:55;8.40;;;2.60;;
64459;SDS011;50828;53.756;21.140;2023-08-08T00:46:03;13.00;;;3.50;;
64459;SDS011;50828;53.756;21.140;2023-08-08T00:51:11;7.30;;;2.10;;
64459;SDS011;50828;53.756;21.140;2023-08-08T00:56:22;8.30;;;2.30;;
64459;SDS011;50828;53.756;21.140;2023-08-08T01:01:31;8.80;;;2.50;;
64459;SDS011;50828;53.756;21.140;2023-08-08T01:06:41;12.70;;;4.20;;
64459;SDS011;50828;53.756;21.140;2023-08-08T01:11:58;12.60;;;3.10;;
64459;SDS011;50828;53.756;21.140;2023-08-08T01:17:12;12.40;;;3.10;;
64459;SDS011;50828;53.756;21.140;2023-08-08T01:22:22;14.50;;;3.60;;
64459;SDS011;50828;53.756;21.140;2023-08-08T01:27:35;9.40;;;2.50;;
64459;SDS011;50828;53.756;21.140;2023-08-08T01:32:44;9.10;;;2.70;;
64459;SDS011;50828;53.756;21.140;2023-08-08T01:37:54;11.40;;;2.90;;
64459;SDS011;50828;53.756;21.140;2023-08-08T01:43:07;9.40;;;2.10;;
64459;SDS011;50828;53.756;21.140;2023-08-08T01:48:17;9.60;;;2.60;;
64459;SDS011;50828;53.756;21.140;2023-08-08T01:53:26;11.40;;;2.30;;
64459;SDS011;50828;53.756;21.140;2023-08-08T01:58:34;11.30;;;2.40;;
64459;SDS011;50828;53.756;21.140;2023-08-08T02:03:43;8.10;;;2.20;;
64459;SDS011;50828;53.756;21.140;2023-08-08T02:08:50;9.80;;;2.40;;
64459;SDS011;50828;53.756;21.140;2023-08-08T02:13:58;13.00;;;4.30;;
64459;SDS011;50828;53.756;21.140;2023-08-08T02:19:06;10.50;;;2.40;;
64459;SDS011;50828;53.756;21.140;2023-08-08T02:24:13;14.70;;;3.00;;
64459;SDS011;50828;53.756;21.140;2023-08-08T02:29:21;14.20;;;2.80;;
64459;SDS011;50828;53.756;21.140;2023-08-08T02:34:30;11.40;;;2.90;;
64459;SDS011;50828;53.756;21.140;2023-08-08T02:39:38;14.10;;;2.70;;
64459;SDS011;50828;53.756;21.140;2023-08-08T02:44:47;7.90;;;1.90;;
64459;SDS011;50828;53.756;21.140;2023-08-08T02:49:56;7.70;;;2.20;;
64459;SDS011;50828;53.756;21.140;2023-08-08T02:55:06;9.30;;;2.60;;
64459;SDS011;50828;53.756;21.140;2023-08-08T03:00:15;18.40;;;3.20;;
64459;SDS011;50828;53.756;21.140;2023-08-08T03:05:26;14.10;;;2.70;;
64459;SDS011;50828;53.756;21.140;2023-08-08T03:10:34;7.70;;;2.30;;
64459;SDS011;50828;53.756;21.140;2023-08-08T03:15:43;8.40;;;2.60;;
64459;SDS011;50828;53.756;21.140;2023-08-08T03:20:52;11.50;;;2.50;;
64459;SDS011;50828;53.756;21.140;2023-08-08T03:26:01;11.70;;;2.40;;
64459;SDS011;50828;53.756;21.140;2023-08-08T03:31:10;11.90;;;3.30;;
64459;SDS011;50828;53.756;21.140;2023-08-08T03:36:18;7.80;;;2.70;;
64459;SDS011;50828;53.756;21.140;2023-08-08T03:41:27;13.80;;;2.60;;
64459;SDS011;50828;53.756;21.140;2023-08-08T03:46:36;12.80;;;3.40;;
64459;SDS011;50828;53.756;21.140;2023-08-08T03:51:44;12.30;;;2.70;;
64459;SDS011;50828;53.756;21.140;2023-08-08T03:56:53;12.30;;;2.60;;
64459;SDS011;50828;53.756;21.140;2023-08-08T04:02:03;8.20;;;2.10;;
64459;SDS011;50828;53.756;21.140;2023-08-08T04:07:12;8.30;;;2.60;;
64459;SDS011;50828;53.756;21.140;2023-08-08T04:12:20;11.30;;;3.00;;
64459;SDS011;50828;53.756;21.140;2023-08-08T04:17:29;6.90;;;3.10;;
64459;SDS011;50828;53.756;21.140;2023-08-08T04:22:38;14.90;;;3.20;;
64459;SDS011;50828;53.756;21.140;2023-08-08T04:27:46;19.70;;;3.30;;
64459;SDS011;50828;53.756;21.140;2023-08-08T04:32:54;12.20;;;2.70;;
64459;SDS011;50828;53.756;21.140;2023-08-08T04:38:03;7.60;;;2.50;;
64459;SDS011;50828;53.756;21.140;2023-08-08T04:43:11;17.30;;;3.40;;
64459;SDS011;50828;53.756;21.140;2023-08-08T04:48:19;8.90;;;2.60;;
64459;SDS011;50828;53.756;21.140;2023-08-08T04:53:27;10.50;;;2.70;;
64459;SDS011;50828;53.756;21.140;2023-08-08T04:58:36;15.70;;;3.30;;
64459;SDS011;50828;53.756;21.140;2023-08-08T05:03:44;13.50;;;2.60;;
64459;SDS011;50828;53.756;21.140;2023-08-08T05:08:53;15.00;;;2.60;;
64459;SDS011;50828;53.756;21.140;2023-08-08T05:14:01;6.80;;;2.30;;
64459;SDS011;50828;53.756;21.140;2023-08-08T05:19:09;14.30;;;3.00;;
64459;SDS011;50828;53.756;21.140;2023-08-08T05:24:17;8.30;;;2.90;;
64459;SDS011;50828;53.756;21.140;2023-08-08T05:29:25;8.10;;;2.30;;
64459;SDS011;50828;53.756;21.140;2023-08-08T05:34:34;7.30;;;2.90;;
64459;SDS011;50828;53.756;21.140;2023-08-08T05:39:42;11.50;;;2.60;;
64459;SDS011;50828;53.756;21.140;2023-08-08T05:44:51;11.10;;;2.10;;
64459;SDS011;50828;53.756;21.140;2023-08-08T05:49:59;9.70;;;2.50;;
64459;SDS011;50828;53.756;21.140;2023-08-08T05:55:07;8.40;;;2.70;;
64459;SDS011;50828;53.756;21.140;2023-08-08T06:00:16;8.60;;;2.80;;
64459;SDS011;50828;53.756;21.140;2023-08-08T06:05:25;6.90;;;2.00;;
64459;SDS011;50828;53.756;21.140;2023-08-08T06:10:34;11.80;;;2.70;;
64459;SDS011;50828;53.756;21.140;2023-08-08T06:15:42;10.50;;;2.20;;
64459;SDS011;50828;53.756;21.140;2023-08-08T06:20:51;10.20;;;2.60;;
64459;SDS011;50828;53.756;21.140;2023-08-08T06:26:19;11.60;;;3.10;;
64459;SDS011;50828;53.756;21.140;2023-08-08T06:31:29;8.10;;;2.20;;
64459;SDS011;50828;53.756;21.140;2023-08-08T06:36:37;9.70;;;2.80;;
64459;SDS011;50828;53.756;21.140;2023-08-08T06:41:47;10.60;;;2.60;;
64459;SDS011;50828;53.756;21.140;2023-08-08T06:46:57;11.50;;;2.40;;
64459;SDS011;50828;53.756;21.140;2023-08-08T06:52:06;7.10;;;2.20;;
64459;SDS011;50828;53.756;21.140;2023-08-08T06:57:15;9.60;;;2.50;;
64459;SDS011;50828;53.756;21.140;2023-08-08T07:02:24;11.70;;;2.30;;
64459;SDS011;50828;53.756;21.140;2023-08-08T07:07:33;10.90;;;3.20;;
64459;SDS011;50828;53.756;21.140;2023-08-08T07:12:43;12.40;;;2.70;;
64459;SDS011;50828;53.756;21.140;2023-08-08T07:17:53;7.20;;;2.30;;
64459;SDS011;50828;53.756;21.140;2023-08-08T07:23:02;9.40;;;3.10;;
64459;SDS011;50828;53.756;21.140;2023-08-08T07:28:12;8.80;;;2.40;;
64459;SDS011;50828;53.756;21.140;2023-08-08T07:33:22;5.60;;;2.10;;
64459;SDS011;50828;53.756;21.140;2023-08-08T07:38:31;8.30;;;2.60;;
64459;SDS011;50828;53.756;21.140;2023-08-08T07:43:40;7.30;;;2.40;;
64459;SDS011;50828;53.756;21.140;2023-08-08T07:48:48;12.00;;;2.60;;
64459;SDS011;50828;53.756;21.140;2023-08-08T07:53:56;7.90;;;2.10;;
64459;SDS011;50828;53.756;21.140;2023-08-08T07:59:04;11.80;;;2.30;;
64459;SDS011;50828;53.756;21.140;2023-08-08T08:04:13;8.40;;;2.10;;
64459;SDS011;50828;53.756;21.140;2023-08-08T08:09:21;7.10;;;2.30;;
64459;SDS011;50828;53.756;21.140;2023-08-08T08:14:30;7.60;;;2.10;;
64459;SDS011;50828;53.756;21.140;2023-08-08T08:19:40;7.20;;;2.10;;
64459;SDS011;50828;53.756;21.140;2023-08-08T08:24:49;9.90;;;2.10;;
64459;SDS011;50828;53.756;21.140;2023-08-08T08:29:57;7.60;;;2.00;;
64459;SDS011;50828;53.756;21.140;2023-08-08T08:35:06;9.00;;;2.50;;
64459;SDS011;50828;53.756;21.140;2023-08-08T08:40:17;6.90;;;2.20;;
64459;SDS011;50828;53.756;21.140;2023-08-08T08:45:25;10.50;;;2.50;;
64459;SDS011;50828;53.756;21.140;2023-08-08T08:50:35;7.20;;;2.40;;
64459;SDS011;50828;53.756;21.140;2023-08-08T08:55:44;10.30;;;2.50;;
64459;SDS011;50828;53.756;21.140;2023-08-08T09:00:52;9.80;;;2.40;;
64459;SDS011;50828;53.756;21.140;2023-08-08T09:06:01;7.20;;;2.30;;
64459;SDS011;50828;53.756;21.140;2023-08-08T09:11:11;8.50;;;2.20;;
64459;SDS011;50828;53.756;21.140;2023-08-08T09:16:21;8.70;;;2.60;;
64459;SDS011;50828;53.756;21.140;2023-08-08T09:21:30;5.60;;;2.10;;
64459;SDS011;50828;53.756;21.140;2023-08-08T09:26:41;6.60;;;2.20;;
64459;SDS011;50828;53.756;21.140;2023-08-08T09:31:50;6.40;;;2.50;;
64459;SDS011;50828;53.756;21.140;2023-08-08T09:36:59;12.10;;;2.20;;
64459;SDS011;50828;53.756;21.140;2023-08-08T09:42:07;7.10;;;2.30;;
64459;SDS011;50828;53.756;21.140;2023-08-08T09:47:16;10.10;;;2.40;;
64459;SDS011;50828;53.756;21.140;2023-08-08T09:52:26;8.50;;;2.30;;
64459;SDS011;50828;53.756;21.140;2023-08-08T09:57:34;9.20;;;2.50;;
64459;SDS011;50828;53.756;21.140;2023-08-08T10:02:44;8.60;;;2.80;;
64459;SDS011;50828;53.756;21.140;2023-08-08T10:07:52;6.80;;;2.10;;
64459;SDS011;50828;53.756;21.140;2023-08-08T10:13:01;7.40;;;2.20;;
64459;SDS011;50828;53.756;21.140;2023-08-08T10:18:10;8.70;;;2.00;;
64459;SDS011;50828;53.756;21.140;2023-08-08T10:23:19;8.80;;;2.40;;
64459;SDS011;50828;53.756;21.140;2023-08-08T10:28:27;8.70;;;2.10;;
64459;SDS011;50828;53.756;21.140;2023-08-08T10:33:43;7.50;;;2.00;;
64459;SDS011;50828;53.756;21.140;2023-08-08T10:38:50;6.90;;;1.60;;
64459;SDS011;50828;53.756;21.140;2023-08-08T10:43:59;6.20;;;2.20;;
64459;SDS011;50828;53.756;21.140;2023-08-08T10:49:07;6.40;;;1.70;;
64459;SDS011;50828;53.756;21.140;2023-08-08T10:59:27;6.40;;;1.60;;
64459;SDS011;50828;53.756;21.140;2023-08-08T11:04:42;5.60;;;2.10;;
64459;SDS011;50828;53.756;21.140;2023-08-08T11:09:50;3.00;;;1.80;;
64459;SDS011;50828;53.756;21.140;2023-08-08T11:14:58;5.60;;;2.30;;
64459;SDS011;50828;53.756;21.140;2023-08-08T11:20:07;9.90;;;1.80;;
64459;SDS011;50828;53.756;21.140;2023-08-08T11:25:16;6.60;;;1.70;;
64459;SDS011;50828;53.756;21.140;2023-08-08T11:30:23;6.30;;;1.80;;
64459;SDS011;50828;53.756;21.140;2023-08-08T11:35:33;5.20;;;2.00;;
64459;SDS011;50828;53.756;21.140;2023-08-08T11:40:41;5.40;;;1.80;;
64459;SDS011;50828;53.756;21.140;2023-08-08T11:45:50;8.00;;;1.90;;
64459;SDS011;50828;53.756;21.140;2023-08-08T11:50:58;9.00;;;2.00;;
64459;SDS011;50828;53.756;21.140;2023-08-08T11:56:09;7.30;;;2.10;;
64459;SDS011;50828;53.756;21.140;2023-08-08T12:01:16;5.70;;;1.70;;
64459;SDS011;50828;53.756;21.140;2023-08-08T12:06:29;8.90;;;2.10;;
64459;SDS011;50828;53.756;21.140;2023-08-08T12:11:37;5.00;;;1.80;;
64459;SDS011;50828;53.756;21.140;2023-08-08T12:16:46;6.70;;;1.80;;
64459;SDS011;50828;53.756;21.140;2023-08-08T12:21:54;5.80;;;1.80;;
64459;SDS011;50828;53.756;21.140;2023-08-08T12:27:02;5.60;;;2.10;;
64459;SDS011;50828;53.756;21.140;2023-08-08T12:32:11;3.40;;;1.70;;
64459;SDS011;50828;53.756;21.140;2023-08-08T12:37:18;6.00;;;2.00;;
64459;SDS011;50828;53.756;21.140;2023-08-08T12:42:26;8.70;;;2.20;;
64459;SDS011;50828;53.756;21.140;2023-08-08T12:47:34;7.00;;;1.80;;
64459;SDS011;50828;53.756;21.140;2023-08-08T12:52:41;11.00;;;1.80;;
64459;SDS011;50828;53.756;21.140;2023-08-08T12:57:49;5.70;;;1.60;;
64459;SDS011;50828;53.756;21.140;2023-08-08T13:02:57;9.50;;;1.90;;
64459;SDS011;50828;53.756;21.140;2023-08-08T13:08:06;4.90;;;1.70;;
64459;SDS011;50828;53.756;21.140;2023-08-08T13:13:14;4.30;;;1.50;;
64459;SDS011;50828;53.756;21.140;2023-08-08T13:18:22;5.30;;;1.80;;
64459;SDS011;50828;53.756;21.140;2023-08-08T13:23:30;4.40;;;2.00;;
64459;SDS011;50828;53.756;21.140;2023-08-08T13:28:38;4.00;;;1.70;;
64459;SDS011;50828;53.756;21.140;2023-08-08T13:33:46;6.00;;;1.70;;
64459;SDS011;50828;53.756;21.140;2023-08-08T13:38:55;5.50;;;2.00;;
64459;SDS011;50828;53.756;21.140;2023-08-08T13:44:04;6.10;;;1.60;;
64459;SDS011;50828;53.756;21.140;2023-08-08T13:49:13;5.80;;;1.60;;
64459;SDS011;50828;53.756;21.140;2023-08-08T13:54:21;6.50;;;1.70;;
64459;SDS011;50828;53.756;21.140;2023-08-08T13:59:29;3.70;;;1.60;;
64459;SDS011;50828;53.756;21.140;2023-08-08T14:04:38;4.80;;;1.80;;
64459;SDS011;50828;53.756;21.140;2023-08-08T14:09:47;3.20;;;1.60;;
64459;SDS011;50828;53.756;21.140;2023-08-08T14:14:55;4.40;;;1.50;;
64459;SDS011;50828;53.756;21.140;2023-08-08T14:20:05;5.20;;;1.50;;
64459;SDS011;50828;53.756;21.140;2023-08-08T14:32:28;3.30;;;1.60;;
64459;SDS011;50828;53.756;21.140;2023-08-08T14:37:37;7.80;;;1.80;;
64459;SDS011;50828;53.756;21.140;2023-08-08T14:42:47;4.60;;;1.40;;
64459;SDS011;50828;53.756;21.140;2023-08-08T14:47:59;4.00;;;1.50;;
64459;SDS011;50828;53.756;21.140;2023-08-08T14:53:09;5.10;;;2.00;;
64459;SDS011;50828;53.756;21.140;2023-08-08T14:58:18;4.80;;;1.80;;
64459;SDS011;50828;53.756;21.140;2023-08-08T15:03:30;5.00;;;1.60;;
64459;SDS011;50828;53.756;21.140;2023-08-08T15:08:41;5.60;;;1.80;;
64459;SDS011;50828;53.756;21.140;2023-08-08T15:13:50;6.20;;;2.20;;
64459;SDS011;50828;53.756;21.140;2023-08-08T15:18:58;5.40;;;1.60;;
64459;SDS011;50828;53.756;21.140;2023-08-08T15:24:09;3.50;;;1.60;;
64459;SDS011;50828;53.756;21.140;2023-08-08T15:29:18;2.50;;;1.40;;
64459;SDS011;50828;53.756;21.140;2023-08-08T15:34:31;2.80;;;1.10;;
64459;SDS011;50828;53.756;21.140;2023-08-08T15:39:41;5.00;;;1.40;;
64459;SDS011;50828;53.756;21.140;2023-08-08T15:44:48;5.90;;;1.90;;
64459;SDS011;50828;53.756;21.140;2023-08-08T15:49:56;4.00;;;1.40;;
64459;SDS011;50828;53.756;21.140;2023-08-08T15:55:04;4.40;;;1.60;;
64459;SDS011;50828;53.756;21.140;2023-08-08T16:00:15;5.00;;;1.50;;
64459;SDS011;50828;53.756;21.140;2023-08-08T16:05:23;6.60;;;1.90;;
64459;SDS011;50828;53.756;21.140;2023-08-08T16:10:32;3.10;;;1.50;;
64459;SDS011;50828;53.756;21.140;2023-08-08T16:15:39;3.30;;;1.60;;
64459;SDS011;50828;53.756;21.140;2023-08-08T16:20:47;4.00;;;1.70;;
64459;SDS011;50828;53.756;21.140;2023-08-08T16:25:54;3.90;;;1.20;;
64459;SDS011;50828;53.756;21.140;2023-08-08T16:31:02;3.70;;;1.40;;
64459;SDS011;50828;53.756;21.140;2023-08-08T16:36:09;3.80;;;1.40;;
64459;SDS011;50828;53.756;21.140;2023-08-08T16:41:18;4.00;;;1.40;;
64459;SDS011;50828;53.756;21.140;2023-08-08T16:46:26;4.50;;;2.10;;
64459;SDS011;50828;53.756;21.140;2023-08-08T16:51:34;4.60;;;2.00;;
64459;SDS011;50828;53.756;21.140;2023-08-08T16:56:42;2.90;;;1.30;;
64459;SDS011;50828;53.756;21.140;2023-08-08T17:01:50;4.60;;;1.80;;
64459;SDS011;50828;53.756;21.140;2023-08-08T17:06:58;6.80;;;2.80;;
64459;SDS011;50828;53.756;21.140;2023-08-08T17:12:06;6.20;;;2.40;;
64459;SDS011;50828;53.756;21.140;2023-08-08T17:17:14;4.40;;;1.90;;
64459;SDS011;50828;53.756;21.140;2023-08-08T17:22:23;2.70;;;1.30;;
64459;SDS011;50828;53.756;21.140;2023-08-08T17:27:30;3.20;;;1.70;;
64459;SDS011;50828;53.756;21.140;2023-08-08T17:32:39;4.90;;;1.60;;
64459;SDS011;50828;53.756;21.140;2023-08-08T17:37:47;3.50;;;1.70;;
64459;SDS011;50828;53.756;21.140;2023-08-08T17:42:54;3.40;;;1.90;;
64459;SDS011;50828;53.756;21.140;2023-08-08T17:48:02;3.30;;;1.40;;
64459;SDS011;50828;53.756;21.140;2023-08-08T17:53:11;3.00;;;1.60;;
64459;SDS011;50828;53.756;21.140;2023-08-08T17:58:18;5.30;;;1.60;;
64459;SDS011;50828;53.756;21.140;2023-08-08T18:03:26;4.00;;;1.80;;
64459;SDS011;50828;53.756;21.140;2023-08-08T18:08:34;3.80;;;1.60;;
64459;SDS011;50828;53.756;21.140;2023-08-08T18:13:42;3.30;;;1.60;;
64459;SDS011;50828;53.756;21.140;2023-08-08T18:18:51;3.10;;;1.60;;
64459;SDS011;50828;53.756;21.140;2023-08-08T18:23:58;3.00;;;1.50;;
64459;SDS011;50828;53.756;21.140;2023-08-08T18:29:07;7.20;;;2.30;;
64459;SDS011;50828;53.756;21.140;2023-08-08T18:34:15;3.80;;;1.90;;
64459;SDS011;50828;53.756;21.140;2023-08-08T18:39:22;4.00;;;1.70;;
64459;SDS011;50828;53.756;21.140;2023-08-08T18:44:30;4.10;;;1.80;;
64459;SDS011;50828;53.756;21.140;2023-08-08T18:49:37;4.40;;;2.30;;
64459;SDS011;50828;53.756;21.140;2023-08-08T18:54:46;6.30;;;2.60;;
64459;SDS011;50828;53.756;21.140;2023-08-08T18:59:54;3.80;;;2.00;;
64459;SDS011;50828;53.756;21.140;2023-08-08T19:05:01;3.30;;;1.90;;
64459;SDS011;50828;53.756;21.140;2023-08-08T19:10:11;4.30;;;1.90;;
64459;SDS011;50828;53.756;21.140;2023-08-08T19:15:19;5.00;;;2.10;;
64459;SDS011;50828;53.756;21.140;2023-08-08T19:20:27;5.10;;;2.20;;
64459;SDS011;50828;53.756;21.140;2023-08-08T19:25:34;3.60;;;2.00;;
64459;SDS011;50828;53.756;21.140;2023-08-08T19:30:42;5.40;;;1.80;;
64459;SDS011;50828;53.756;21.140;2023-08-08T19:35:50;7.90;;;2.10;;
64459;SDS011;50828;53.756;21.140;2023-08-08T19:40:59;7.90;;;2.30;;
64459;SDS011;50828;53.756;21.140;2023-08-08T19:46:07;2.50;;;1.60;;
64459;SDS011;50828;53.756;21.140;2023-08-08T19:51:15;4.70;;;1.80;;
64459;SDS011;50828;53.756;21.140;2023-08-08T19:56:23;6.80;;;2.10;;
64459;SDS011;50828;53.756;21.140;2023-08-08T20:01:31;5.50;;;2.20;;
64459;SDS011;50828;53.756;21.140;2023-08-08T20:06:39;4.80;;;2.00;;
64459;SDS011;50828;53.756;21.140;2023-08-08T20:11:47;3.90;;;1.80;;
64459;SDS011;50828;53.756;21.140;2023-08-08T20:16:55;5.30;;;2.20;;
64459;SDS011;50828;53.756;21.140;2023-08-08T20:22:03;5.10;;;2.00;;
64459;SDS011;50828;53.756;21.140;2023-08-08T20:27:11;6.60;;;2.10;;
64459;SDS011;50828;53.756;21.140;2023-08-08T20:32:19;6.60;;;1.90;;
64459;SDS011;50828;53.756;21.140;2023-08-08T20:37:28;6.90;;;2.00;;
64459;SDS011;50828;53.756;21.140;2023-08-08T20:42:35;5.90;;;2.30;;
64459;SDS011;50828;53.756;21.140;2023-08-08T20:47:43;3.60;;;2.00;;
64459;SDS011;50828;53.756;21.140;2023-08-08T20:52:51;3.40;;;1.70;;
64459;SDS011;50828;53.756;21.140;2023-08-08T20:57:58;3.20;;;1.80;;
64459;SDS011;50828;53.756;21.140;2023-08-08T21:03:09;6.90;;;2.40;;
64459;SDS011;50828;53.756;21.140;2023-08-08T21:08:16;5.70;;;2.60;;
64459;SDS011;50828;53.756;21.140;2023-08-08T21:13:24;2.60;;;1.80;;
64459;SDS011;50828;53.756;21.140;2023-08-08T21:18:31;3.10;;;2.00;;
64459;SDS011;50828;53.756;21.140;2023-08-08T21:23:38;5.80;;;2.30;;
64459;SDS011;50828;53.756;21.140;2023-08-08T21:28:44;4.90;;;2.50;;
64459;SDS011;50828;53.756;21.140;2023-08-08T21:33:51;5.40;;;2.30;;
64459;SDS011;50828;53.756;21.140;2023-08-08T21:38:59;4.30;;;2.30;;
64459;SDS011;50828;53.756;21.140;2023-08-08T21:44:06;7.30;;;3.00;;
64459;SDS011;50828;53.756;21.140;2023-08-08T21:49:13;5.60;;;2.60;;
64459;SDS011;50828;53.756;21.140;2023-08-08T21:54:20;2.50;;;1.70;;
64459;SDS011;50828;53.756;21.140;2023-08-08T21:59:27;4.60;;;2.70;;
64459;SDS011;50828;53.756;21.140;2023-08-08T22:04:34;6.40;;;3.00;;
64459;SDS011;50828;53.756;21.140;2023-08-08T22:09:45;5.30;;;2.60;;
64459;SDS011;50828;53.756;21.140;2023-08-08T22:14:52;5.10;;;2.90;;
64459;SDS011;50828;53.756;21.140;2023-08-08T22:19:59;5.60;;;2.60;;
64459;SDS011;50828;53.756;21.140;2023-08-08T22:25:07;5.50;;;2.50;;
64459;SDS011;50828;53.756;21.140;2023-08-08T22:30:14;4.20;;;2.40;;
64459;SDS011;50828;53.756;21.140;2023-08-08T22:35:21;5.90;;;2.50;;
64459;SDS011;50828;53.756;21.140;2023-08-08T22:40:28;4.40;;;2.30;;
64459;SDS011;50828;53.756;21.140;2023-08-08T22:45:36;7.40;;;2.80;;
64459;SDS011;50828;53.756;21.140;2023-08-08T22:50:43;5.60;;;2.80;;
64459;SDS011;50828;53.756;21.140;2023-08-08T22:55:50;7.90;;;2.50;;
64459;SDS011;50828;53.756;21.140;2023-08-08T23:00:57;4.80;;;2.70;;
64459;SDS011;50828;53.756;21.140;2023-08-08T23:06:04;6.40;;;2.50;;
64459;SDS011;50828;53.756;21.140;2023-08-08T23:11:11;5.40;;;3.20;;
64459;SDS011;50828;53.756;21.140;2023-08-08T23:16:18;4.90;;;2.50;;
64459;SDS011;50828;53.756;21.140;2023-08-08T23:21:26;5.60;;;2.70;;
64459;SDS011;50828;53.756;21.140;2023-08-08T23:26:34;4.20;;;2.60;;
64459;SDS011;50828;53.756;21.140;2023-08-08T23:31:41;5.70;;;3.00;;
64459;SDS011;50828;53.756;21.140;2023-08-08T23:36:50;4.90;;;2.90;;
64459;SDS011;50828;53.756;21.140;2023-08-08T23:41:59;6.90;;;3.10;;
64459;SDS011;50828;53.756;21.140;2023-08-08T23:47:08;5.20;;;2.60;;
64459;SDS011;50828;53.756;21.140;2023-08-08T23:52:16;6.30;;;2.70;;
64459;SDS011;50828;53.756;21.140;2023-08-08T23:57:24;6.50;;;2.90;;
